Latest Weather Observations for Hobart

IDT60801

Issued at 9:35 am EST Friday 25 April 2014 (issued every 30 minutes, with the page automatically refreshed every 10 minutes)

About weather observations | Map of weather stations | Latest weather observations for TAS | Other Formats
Station Details ID: 094029 Name: HOBART (ELLERSLIE ROAD) Lat: -42.89 Lon: 147.33 Height: 50.5 m
Data from the previous 72 hours. | See also: Recent months at Hobart
Date/Time
EST
Temp
°C
App
Temp
°C
Dew
Point
Rel
Hum
%
Delta-T
°C
Wind Press
QNH
hPa
Press
MSL
hPa
Rain
since 9 am
mm
Dir
 
Spd
km/h
Gust
km/h
Spd
kts
Gust
kts
25/09:30am 11.0 3.7 2.4 55 3.7 NNW 30 43 16 23 1017.6 - 0.0
25/09:00am 10.1 3.6 2.6 59 3.2 N 26 37 14 20 1017.8 1017.9 1.0
25/08:30am 8.5 2.4 2.6 66 2.5 N 24 35 13 19 1018.1 - 1.0
25/08:00am 8.6 0.9 2.1 63 2.7 NNW 32 43 17 23 1018.1 - 1.0
25/07:45am 8.5 1.5 2.0 63 2.7 NNW 28 46 15 25 1017.9 - 1.0
25/07:30am 8.0 2.8 2.2 67 2.4 N 19 30 10 16 1018.2 - 1.0
25/07:00am 7.2 0.2 1.8 68 2.2 NNW 28 39 15 21 1017.8 - 1.0
25/06:30am 7.3 -0.1 1.6 67 2.3 NNW 30 39 16 21 1018.0 - 1.0
25/06:00am 7.5 -0.5 1.6 66 2.4 NNW 33 41 18 22 1017.9 1018.0 1.0
25/05:30am 8.1 -0.7 1.2 62 2.8 NNW 37 48 20 26 1017.4 - 1.0
25/05:00am 8.2 0.3 1.0 60 2.9 NNW 32 46 17 25 1017.6 - 1.0
25/04:30am 8.6 -0.3 0.6 57 3.2 NNW 37 52 20 28 1017.3 - 1.0
25/04:25am 8.6 0.4 0.6 57 3.2 NNW 33 52 18 28 1017.2 - 1.0
25/04:00am 8.4 0.4 0.7 58 3.1 N 32 43 17 23 1017.4 - 1.0
25/03:30am 8.1 0.1 0.6 59 3.0 NNW 32 43 17 23 1017.1 - 1.0
25/03:17am 8.2 0.6 0.7 59 3.0 N 30 48 16 26 1017.1 - 1.0
25/03:15am 8.2 0.2 0.7 59 3.0 N 32 48 17 26 1017.1 - 1.0
25/03:00am 7.1 3.6 1.4 67 2.3 W 9 28 5 15 1017.3 1017.4 1.0
25/02:30am 8.1 0.5 0.6 59 3.0 NNW 30 41 16 22 1017.1 - 1.0
25/02:00am 8.2 3.1 0.7 59 3.0 NW 17 37 9 20 1017.3 - 1.0
25/01:30am 8.5 0.9 0.8 58 3.1 NW 30 43 16 23 1017.2 - 1.0
25/01:10am 8.6 1.4 0.6 57 3.2 NW 28 48 15 26 1017.1 - 1.0
25/01:00am 8.6 1.8 0.6 57 3.2 NNW 26 43 14 23 1017.2 - 1.0
25/12:30am 8.6 2.9 0.6 57 3.2 NW 20 32 11 17 1017.3 - 1.0
25/12:00am 8.6 0.1 0.6 57 3.2 NNW 35 50 19 27 1016.9 1017.0 1.0
 
Date/Time
EST
Temp
°C
App
Temp
°C
Dew
Point
Rel
Hum
%
Delta-T
°C
Wind Press
QNH
hPa
Press
MSL
hPa
Rain
since 9 am
mm
Dir
 
Spd
km/h
Gust
km/h
Spd
kts
Gust
kts
24/11:49pm 8.7 0.6 0.8 57 3.2 NNW 33 52 18 28 1016.9 - 1.0
24/11:30pm 8.7 0.6 1.1 59 3.1 NNW 33 46 18 25 1017.0 - 1.0
24/11:21pm 8.5 1.4 1.4 61 2.9 NNW 28 46 15 25 1016.9 - 1.0
24/11:00pm 8.7 1.6 1.4 60 3.0 NNW 28 44 15 24 1016.9 - 1.0
24/10:30pm 8.7 2.0 1.4 60 3.0 N 26 43 14 23 1016.9 - 1.0
24/10:26pm 8.7 1.6 1.4 60 3.0 N 28 43 15 23 1016.8 - 1.0
24/10:00pm 8.2 4.6 0.7 59 3.0 NNE 9 17 5 9 1016.7 - 1.0
24/09:30pm 8.4 5.2 0.7 58 3.1 NW 7 13 4 7 1016.2 - 1.0
24/09:00pm 9.0 4.9 -0.4 52 3.7 WSW 11 26 6 14 1016.0 1016.1 1.0
24/08:30pm 9.0 2.2 0.6 55 3.4 N 26 41 14 22 1015.4 - 1.0
24/08:00pm 8.8 2.8 0.9 57 3.2 NNW 22 30 12 16 1015.2 - 1.0
24/07:30pm 9.2 3.1 0.5 54 3.5 NW 22 32 12 17 1015.0 - 1.0
24/07:00pm 9.4 6.1 -0.1 51 3.8 N 7 17 4 9 1014.7 - 1.0
24/06:30pm 9.5 5.4 -0.3 50 3.9 NNW 11 17 6 9 1014.0 - 1.0
24/06:11pm 9.8 2.3 -1.6 45 4.4 W 28 48 15 26 1013.4 - 1.0
24/06:00pm 9.9 3.4 -2.1 43 4.6 W 22 44 12 24 1012.7 1012.8 1.0
24/05:30pm 9.3 2.4 0.1 52 3.7 SW 26 37 14 20 1012.3 - 1.0
24/05:00pm 9.6 6.2 -0.8 48 4.1 W 7 13 4 7 1011.6 - 1.0
24/04:30pm 10.5 5.4 -2.2 41 4.9 W 15 30 8 16 1011.1 - 1.0
24/04:00pm 9.9 2.6 0.0 50 4.0 SW 28 44 15 24 1010.4 - 1.0
24/03:36pm 11.0 3.5 -1.4 42 4.9 WSW 28 46 15 25 1010.1 - 1.0
24/03:30pm 10.8 4.5 -1.0 44 4.7 SW 22 44 12 24 1010.0 - 1.0
24/03:00pm 11.3 6.8 -0.3 44 4.7 WNW 13 39 7 21 1009.7 1009.8 1.0
24/02:30pm 10.8 2.5 -1.7 41 4.9 WSW 32 52 17 28 1009.0 - 1.0
24/02:16pm 10.6 1.9 -0.6 46 4.5 WSW 35 57 19 31 1008.9 - 1.0
24/02:00pm 8.6 2.8 4.5 75 1.8 SSW 24 44 13 24 1008.8 - 1.0
24/01:34pm 11.3 3.4 -1.3 41 5.0 WSW 30 48 16 26 1007.9 - 0.8
24/01:30pm 11.1 3.7 -0.9 43 4.8 WSW 28 44 15 24 1007.7 - 0.8
24/01:00pm 8.6 3.1 4.0 73 2.0 WSW 22 61 12 33 1007.8 - 0.8
24/12:30pm 12.2 4.5 -2.7 35 5.8 W 28 56 15 30 1007.0 - 0.0
24/12:00pm 12.1 4.2 -1.4 39 5.4 W 30 57 16 31 1006.4 1006.5 0.0
24/11:55am 12.1 3.8 -1.8 38 5.5 W 32 50 17 27 1006.6 - 0.0
24/11:51am 11.7 2.4 -2.4 37 5.5 WSW 37 50 20 27 1006.4 - 0.0
24/11:30am 12.0 3.8 -0.8 41 5.2 WNW 32 52 17 28 1006.2 - 0.0
24/11:13am 11.3 3.3 0.1 46 4.6 NW 32 50 17 27 1005.8 - 0.0
24/11:00am 10.1 4.3 2.1 57 3.4 W 22 50 12 27 1005.8 - 0.0
24/10:44am 10.7 1.6 -0.5 46 4.5 W 37 56 20 30 1005.6 - 0.0
24/10:30am 10.6 6.2 0.1 48 4.3 W 13 32 7 17 1005.3 - 0.0
24/10:06am 11.1 3.3 -0.5 44 4.7 W 30 52 16 28 1004.7 - 0.0
24/10:00am 11.1 7.1 0.5 48 4.4 WNW 11 37 6 20 1004.5 - 0.0
24/09:30am 10.6 6.7 1.3 52 3.9 SW 11 22 6 12 1004.3 - 0.0
24/09:00am 10.8 7.1 2.5 56 3.6 W 11 15 6 8 1003.6 1003.7 1.6
24/08:30am 10.4 7.7 5.6 72 2.2 NNW 9 17 5 9 1003.2 - 1.6
24/08:00am 9.4 5.8 5.2 75 1.9 NNW 13 20 7 11 1002.6 - 1.6
24/07:30am 9.7 4.6 4.3 69 2.4 NNW 20 30 11 16 1001.8 - 1.4
24/07:00am 10.0 4.5 3.9 66 2.7 NNW 22 30 12 16 1000.3 - 1.4
24/06:30am 10.2 3.9 3.6 63 2.9 N 26 37 14 20 1000.2 - 1.4
24/06:00am 10.7 4.0 3.5 61 3.2 NNW 28 48 15 26 1000.1 1000.2 1.4
24/05:59am 10.5 3.8 3.8 63 3.0 NNW 28 48 15 26 1000.1 - 1.4
24/05:30am 10.7 5.5 5.5 70 2.4 N 22 33 12 18 1000.5 - 1.4
24/05:00am 11.6 7.8 5.6 66 2.8 ENE 15 39 8 21 999.9 - 1.4
24/04:33am 11.5 5.3 6.0 69 2.6 SW 28 46 15 25 999.3 - 1.2
24/04:30am 11.8 6.0 6.3 69 2.6 SW 26 46 14 25 999.3 - 1.2
24/04:00am 13.4 10.7 5.6 59 3.7 NNW 9 17 5 9 997.8 - 0.0
24/03:30am 12.7 8.9 5.7 62 3.3 NNW 15 20 8 11 997.6 - 0.0
24/03:00am 12.7 8.4 5.2 60 3.5 NNW 17 22 9 12 998.4 998.5 0.0
24/02:30am 12.9 8.2 5.2 59 3.6 NNW 19 24 10 13 999.4 - 0.0
24/02:00am 13.2 9.0 5.6 60 3.6 N 17 24 9 13 1000.4 - 0.0
24/01:30am 13.3 9.9 5.7 60 3.6 NNE 13 20 7 11 1001.4 - 0.0
24/01:00am 13.5 8.7 4.9 56 4.0 N 19 32 10 17 1002.3 - 0.0
24/12:30am 12.8 8.0 4.8 58 3.7 NNW 19 30 10 16 1002.9 - 0.0
24/12:00am 12.2 8.2 4.8 60 3.4 NW 15 20 8 11 1003.2 1003.3 0.0
 
Date/Time
EST
Temp
°C
App
Temp
°C
Dew
Point
Rel
Hum
%
Delta-T
°C
Wind Press
QNH
hPa
Press
MSL
hPa
Rain
since 9 am
mm
Dir
 
Spd
km/h
Gust
km/h
Spd
kts
Gust
kts
23/11:30pm 12.8 5.8 4.3 56 3.9 NNW 30 43 16 23 1003.5 - 0.0
23/11:00pm 12.6 5.1 4.3 57 3.8 NNW 33 48 18 26 1003.5 - 0.0
23/10:30pm 12.6 5.7 4.6 58 3.7 NNW 30 43 16 23 1004.2 - 0.0
23/10:00pm 12.6 8.5 4.3 57 3.8 N 15 24 8 13 1005.2 - 0.0
23/09:30pm 13.0 7.9 4.3 55 4.0 NNW 20 30 11 16 1005.7 - 0.0
23/09:00pm 13.0 7.9 4.3 55 4.0 NNW 20 28 11 15 1006.0 1006.1 0.0
23/08:30pm 12.8 9.6 5.1 59 3.6 NNW 11 17 6 9 1006.3 - 0.0
23/08:00pm 13.5 10.9 4.4 54 4.2 N 7 13 4 7 1006.8 - 0.0
23/07:30pm 13.8 11.2 4.2 52 4.4 N 7 22 4 12 1007.0 - 0.0
23/07:00pm 14.2 10.0 4.0 50 4.7 N 15 19 8 10 1006.8 - 0.0
23/06:30pm 14.8 11.0 3.7 47 5.1 NNE 13 19 7 10 1007.2 - 0.0
23/06:00pm 15.0 12.2 3.1 45 5.4 NNE 7 13 4 7 1007.6 1007.7 0.0
23/05:30pm 15.5 11.5 2.7 42 5.8 NW 13 20 7 11 1007.6 - 0.0
23/05:00pm 16.0 10.5 1.9 38 6.3 NNW 20 28 11 15 1007.5 - 0.0
23/04:30pm 16.4 12.0 2.8 40 6.2 NNW 15 22 8 12 1007.9 - 0.0
23/04:00pm 16.3 11.2 3.3 42 6.0 NW 19 28 10 15 1008.1 - 0.0
23/03:30pm 16.4 11.2 3.4 42 6.0 NW 20 32 11 17 1008.4 - 0.0
23/03:00pm 16.5 11.5 3.6 42 6.0 NW 19 43 10 23 1008.6 1008.7 0.0
23/02:30pm 16.3 11.8 4.1 44 5.7 WNW 17 24 9 13 1009.1 - 0.0
23/02:00pm 16.1 12.0 4.4 45 5.5 NW 15 24 8 13 1009.6 - 0.0
23/01:30pm 16.2 10.8 4.3 45 5.6 NW 22 33 12 18 1010.0 - 0.0
23/01:00pm 16.3 10.0 3.5 42 5.9 NW 26 37 14 20 1010.4 - 0.0
23/12:30pm 16.3 11.3 3.5 42 5.9 NW 19 26 10 14 1010.7 - 0.0
23/12:00pm 16.0 10.5 4.0 44 5.6 NW 22 33 12 18 1011.1 1011.2 0.0
23/11:30am 15.3 11.2 4.4 48 5.1 N 15 22 8 12 1011.7 - 0.0
23/11:00am 14.5 10.1 4.9 52 4.5 N 17 26 9 14 1012.1 - 0.0
23/10:30am 14.6 11.9 5.6 54 4.3 N 9 15 5 8 1012.4 - 0.0
23/10:00am 13.3 11.3 6.4 63 3.3 ENE 6 11 3 6 1013.1 - 0.0
23/09:30am 12.0 10.0 6.3 68 2.7 N 6 13 3 7 1013.7 - 0.0
23/09:00am 11.6 7.9 6.1 69 2.6 N 15 20 8 11 1013.9 1013.9 0.0
23/08:30am 10.8 6.5 5.4 69 2.5 NNW 17 22 9 12 1014.0 - 0.0
23/08:00am 10.6 6.7 5.4 70 2.4 NW 15 19 8 10 1013.9 - 0.0
23/07:30am 9.7 6.9 5.3 74 2.0 NNW 9 11 5 6 1013.9 - 0.0
23/07:00am 8.7 4.7 5.1 78 1.6 NNW 15 17 8 9 1013.9 - 0.0
23/06:30am 8.2 5.0 5.1 81 1.4 NW 11 13 6 7 1013.8 - 0.0
23/06:00am 9.4 6.3 5.4 76 1.8 NNW 11 13 6 7 1013.8 1013.8 0.0
23/05:30am 9.6 6.5 5.7 76 1.8 N 11 15 6 8 1013.8 - 0.0
23/05:00am 10.4 6.4 5.1 69 2.4 N 15 20 8 11 1013.8 - 0.0
23/04:30am 10.5 6.2 5.2 70 2.4 NNW 17 22 9 12 1013.6 - 0.0
23/04:00am 10.4 6.4 5.1 69 2.4 NNW 15 24 8 13 1013.5 - 0.0
23/03:30am 10.8 6.7 4.6 65 2.8 NNW 15 24 8 13 1013.4 - 0.0
23/03:00am 10.5 6.8 4.7 67 2.6 NNW 13 19 7 10 1013.3 1013.3 0.0
23/02:30am 10.6 7.4 5.1 69 2.5 NNW 11 19 6 10 1013.4 - 0.0
23/02:00am 10.9 6.5 5.0 67 2.7 NNW 17 22 9 12 1013.4 - 0.0
23/01:30am 11.4 6.7 5.1 65 2.9 NNW 19 26 10 14 1013.3 - 0.0
23/01:00am 11.9 7.0 4.9 62 3.2 NNW 20 30 11 16 1013.2 - 0.0
23/12:30am 12.1 7.2 4.9 61 3.3 NNW 20 30 11 16 1013.1 - 0.0
23/12:00am 12.4 7.4 4.8 60 3.5 NNW 20 32 11 17 1013.1 1013.1 0.0
 
Date/Time
EST
Temp
°C
App
Temp
°C
Dew
Point
Rel
Hum
%
Delta-T
°C
Wind Press
QNH
hPa
Press
MSL
hPa
Rain
since 9 am
mm
Dir
 
Spd
km/h
Gust
km/h
Spd
kts
Gust
kts
22/11:30pm 12.5 7.5 3.8 55 3.9 NNW 19 26 10 14 1013.2 - 0.0
22/11:00pm 12.6 7.0 3.4 53 4.1 NNW 22 30 12 16 1013.0 - 0.0
22/10:30pm 12.5 6.9 3.3 53 4.1 NNW 22 28 12 15 1012.9 - 0.0
22/10:00pm 12.8 7.7 2.8 50 4.4 N 19 26 10 14 1013.0 - 0.0
22/09:30pm 12.7 9.0 2.1 48 4.6 N 11 19 6 10 1012.9 - 0.0
22/09:00pm 13.2 8.9 1.0 43 5.2 WSW 13 20 7 11 1012.3 1012.4 0.0
22/08:30pm 13.2 9.0 4.0 53 4.2 WNW 15 24 8 13 1012.0 - 0.0
22/08:00pm 13.6 10.1 5.3 57 3.9 N 13 20 7 11 1011.6 - 0.0
22/07:30pm 14.0 10.1 5.3 55 4.1 NNW 15 22 8 12 1011.2 - 0.0
22/07:00pm 14.1 9.3 5.7 57 4.0 NW 20 32 11 17 1010.9 - 0.0
22/06:30pm 14.5 9.5 4.4 50 4.7 NW 20 32 11 17 1010.2 - 0.0
22/06:00pm 14.4 10.1 3.1 46 5.1 NW 15 22 8 12 1009.6 1009.7 0.0
22/05:30pm 14.6 9.2 2.5 44 5.4 N 20 28 11 15 1009.2 - 0.0
22/05:00pm 14.9 10.0 2.3 42 5.6 NW 17 28 9 15 1009.1 - 0.0
22/04:30pm 15.4 9.8 1.5 39 6.1 NW 20 39 11 21 1008.9 - 0.0
22/04:00pm 15.9 8.8 1.4 37 6.4 NW 28 43 15 23 1008.6 - 0.0
22/03:30pm 16.4 10.0 1.2 35 6.7 NW 24 39 13 21 1008.3 - 0.0
22/03:00pm 16.8 10.5 1.5 35 6.8 NW 24 43 13 23 1008.3 1008.4 0.0
22/02:33pm 17.3 9.9 2.1 36 6.9 NNW 30 48 16 26 1007.9 - 0.0
22/02:30pm 17.3 9.6 2.1 36 6.9 NNW 32 48 17 26 1007.9 - 0.0
22/02:24pm 17.3 10.3 1.7 35 7.0 NNW 28 48 15 26 1007.7 - 0.0
22/02:00pm 17.5 10.4 1.1 33 7.3 NNW 28 43 15 23 1007.6 - 0.0
22/01:37pm 17.4 10.2 0.5 32 7.4 NW 28 52 15 28 1007.6 - 0.0
22/01:30pm 18.4 11.8 1.9 33 7.5 NW 26 43 14 23 1007.7 - 0.0
22/01:15pm 18.6 12.2 5.0 40 6.6 NW 28 46 15 25 1007.0 - 0.0
22/01:00pm 18.6 13.2 6.4 45 6.1 NW 24 44 13 24 1007.0 - 0.0
22/12:30pm 17.8 12.9 5.2 43 6.1 W 20 37 11 20 1006.6 - 0.0
22/12:00pm 18.5 14.3 7.5 48 5.6 NW 19 32 10 17 1006.3 1006.4 0.0
22/11:30am 19.6 15.8 7.5 45 6.2 NNW 17 28 9 15 1005.9 - 0.0
22/11:00am 17.4 12.3 7.8 53 4.9 NNW 24 33 13 18 1005.5 - 0.0
22/10:30am 17.0 13.4 8.2 56 4.5 N 17 28 9 15 1005.4 - 0.0
22/10:00am 16.5 13.1 9.2 62 3.8 N 17 24 9 13 1005.7 - 0.0

Other Formats:

Comma delimited format used in spreadsheet applications
http://www.bom.gov.au/fwo/IDT60801/IDT60801.94970.axf

JavaScript Object Notation format (JSON) in row-major order
http://www.bom.gov.au/fwo/IDT60801/IDT60801.94970.json